sensor_id;sensor_type;location;lat;lon;timestamp;pressure;altitude;pressure_sealevel;temperature;humidity
75157;BME280;63736;50.076;8.198;2024-03-29T00:01:06;97680.97;;;4.10;100.00
75157;BME280;63736;50.076;8.198;2024-03-29T00:02:36;97683.78;;;4.19;100.00
75157;BME280;63736;50.076;8.198;2024-03-29T00:04:06;97682.16;;;4.27;100.00
75157;BME280;63736;50.076;8.198;2024-03-29T00:05:37;97683.97;;;4.37;100.00
75157;BME280;63736;50.076;8.198;2024-03-29T00:07:07;97686.91;;;4.43;100.00
75157;BME280;63736;50.076;8.198;2024-03-29T00:08:39;97670.78;;;4.46;100.00
75157;BME280;63736;50.076;8.198;2024-03-29T00:10:09;97669.53;;;4.51;100.00
75157;BME280;63736;50.076;8.198;2024-03-29T00:11:40;97663.84;;;4.55;100.00
75157;BME280;63736;50.076;8.198;2024-03-29T00:13:10;97662.75;;;4.58;100.00
75157;BME280;63736;50.076;8.198;2024-03-29T00:14:40;97662.31;;;4.53;100.00
75157;BME280;63736;50.076;8.198;2024-03-29T00:16:11;97657.56;;;4.46;100.00
75157;BME280;63736;50.076;8.198;2024-03-29T00:17:42;97655.59;;;4.39;100.00
75157;BME280;63736;50.076;8.198;2024-03-29T00:19:12;97659.94;;;4.40;100.00
75157;BME280;63736;50.076;8.198;2024-03-29T00:20:42;97652.16;;;4.38;100.00
75157;BME280;63736;50.076;8.198;2024-03-29T00:22:12;97655.75;;;4.37;100.00
75157;BME280;63736;50.076;8.198;2024-03-29T00:23:43;97653.25;;;4.36;100.00
75157;BME280;63736;50.076;8.198;2024-03-29T00:25:15;97657.69;;;4.35;100.00
75157;BME280;63736;50.076;8.198;2024-03-29T00:26:45;97650.84;;;4.33;100.00
75157;BME280;63736;50.076;8.198;2024-03-29T00:28:15;97653.50;;;4.33;100.00
75157;BME280;63736;50.076;8.198;2024-03-29T00:29:46;97648.34;;;4.31;100.00
75157;BME280;63736;50.076;8.198;2024-03-29T00:31:17;97646.81;;;4.28;100.00
75157;BME280;63736;50.076;8.198;2024-03-29T00:32:48;97635.16;;;4.31;100.00
75157;BME280;63736;50.076;8.198;2024-03-29T00:34:18;97635.28;;;4.39;100.00
75157;BME280;63736;50.076;8.198;2024-03-29T00:35:48;97638.94;;;4.48;100.00
75157;BME280;63736;50.076;8.198;2024-03-29T00:37:18;97636.41;;;4.56;100.00
75157;BME280;63736;50.076;8.198;2024-03-29T00:38:49;97638.38;;;4.64;100.00
75157;BME280;63736;50.076;8.198;2024-03-29T00:40:19;97639.78;;;4.68;100.00
75157;BME280;63736;50.076;8.198;2024-03-29T00:41:49;97642.97;;;4.72;100.00
75157;BME280;63736;50.076;8.198;2024-03-29T00:43:20;97641.88;;;4.74;100.00
75157;BME280;63736;50.076;8.198;2024-03-29T00:44:50;97635.31;;;4.78;100.00
75157;BME280;63736;50.076;8.198;2024-03-29T00:46:20;97622.81;;;4.80;100.00
75157;BME280;63736;50.076;8.198;2024-03-29T00:47:51;97633.41;;;4.90;100.00
75157;BME280;63736;50.076;8.198;2024-03-29T00:49:21;97634.50;;;4.97;100.00
75157;BME280;63736;50.076;8.198;2024-03-29T00:50:51;97628.78;;;5.02;100.00
75157;BME280;63736;50.076;8.198;2024-03-29T00:52:22;97633.63;;;5.07;100.00
75157;BME280;63736;50.076;8.198;2024-03-29T00:53:52;97625.00;;;5.15;100.00
75157;BME280;63736;50.076;8.198;2024-03-29T00:55:25;97621.38;;;5.25;100.00
75157;BME280;63736;50.076;8.198;2024-03-29T00:56:56;97616.19;;;5.34;100.00
75157;BME280;63736;50.076;8.198;2024-03-29T00:58:26;97625.22;;;5.41;100.00
75157;BME280;63736;50.076;8.198;2024-03-29T00:59:57;97625.63;;;5.46;100.00
75157;BME280;63736;50.076;8.198;2024-03-29T01:01:27;97632.34;;;5.50;100.00
75157;BME280;63736;50.076;8.198;2024-03-29T01:02:57;97626.88;;;5.52;100.00
75157;BME280;63736;50.076;8.198;2024-03-29T01:04:28;97632.03;;;5.53;100.00
75157;BME280;63736;50.076;8.198;2024-03-29T01:05:58;97617.97;;;5.53;100.00
75157;BME280;63736;50.076;8.198;2024-03-29T01:07:28;97611.97;;;5.51;100.00
75157;BME280;63736;50.076;8.198;2024-03-29T01:09:00;97611.25;;;5.58;100.00
75157;BME280;63736;50.076;8.198;2024-03-29T01:10:30;97618.31;;;5.68;100.00
75157;BME280;63736;50.076;8.198;2024-03-29T01:12:01;97618.97;;;5.79;100.00
75157;BME280;63736;50.076;8.198;2024-03-29T01:13:31;97614.16;;;5.93;100.00
75157;BME280;63736;50.076;8.198;2024-03-29T01:15:02;97621.28;;;6.02;100.00
75157;BME280;63736;50.076;8.198;2024-03-29T01:16:33;97622.34;;;6.09;100.00
75157;BME280;63736;50.076;8.198;2024-03-29T01:18:03;97614.94;;;6.13;100.00
75157;BME280;63736;50.076;8.198;2024-03-29T01:19:34;97605.72;;;6.17;100.00
75157;BME280;63736;50.076;8.198;2024-03-29T01:21:04;97600.09;;;6.20;100.00
75157;BME280;63736;50.076;8.198;2024-03-29T01:22:34;97596.84;;;6.26;100.00
75157;BME280;63736;50.076;8.198;2024-03-29T01:24:05;97588.31;;;6.33;100.00
75157;BME280;63736;50.076;8.198;2024-03-29T01:25:35;97590.53;;;6.37;100.00
75157;BME280;63736;50.076;8.198;2024-03-29T01:27:05;97597.03;;;6.43;100.00
75157;BME280;63736;50.076;8.198;2024-03-29T01:28:36;97595.91;;;6.45;100.00
75157;BME280;63736;50.076;8.198;2024-03-29T01:30:08;97592.78;;;6.50;100.00
75157;BME280;63736;50.076;8.198;2024-03-29T01:31:38;97604.09;;;6.52;100.00
75157;BME280;63736;50.076;8.198;2024-03-29T01:33:08;97610.22;;;6.53;100.00
75157;BME280;63736;50.076;8.198;2024-03-29T01:34:39;97607.44;;;6.54;100.00
75157;BME280;63736;50.076;8.198;2024-03-29T01:36:09;97603.66;;;6.57;100.00
75157;BME280;63736;50.076;8.198;2024-03-29T01:37:39;97595.53;;;6.58;100.00
75157;BME280;63736;50.076;8.198;2024-03-29T01:39:10;97580.59;;;6.57;100.00
75157;BME280;63736;50.076;8.198;2024-03-29T01:40:44;97570.31;;;6.54;100.00
75157;BME280;63736;50.076;8.198;2024-03-29T01:42:14;97566.78;;;6.54;100.00
75157;BME280;63736;50.076;8.198;2024-03-29T01:43:45;97565.81;;;6.55;100.00
75157;BME280;63736;50.076;8.198;2024-03-29T01:45:15;97558.84;;;6.54;100.00
75157;BME280;63736;50.076;8.198;2024-03-29T01:46:46;97548.91;;;6.56;100.00
75157;BME280;63736;50.076;8.198;2024-03-29T01:48:17;97543.31;;;6.59;100.00
75157;BME280;63736;50.076;8.198;2024-03-29T01:49:48;97546.09;;;6.57;100.00
75157;BME280;63736;50.076;8.198;2024-03-29T01:51:19;97544.28;;;6.58;100.00
75157;BME280;63736;50.076;8.198;2024-03-29T01:52:52;97546.94;;;6.58;100.00
75157;BME280;63736;50.076;8.198;2024-03-29T01:54:22;97548.91;;;6.56;100.00
75157;BME280;63736;50.076;8.198;2024-03-29T01:55:53;97548.53;;;6.51;100.00
75157;BME280;63736;50.076;8.198;2024-03-29T01:57:23;97531.28;;;6.47;100.00
75157;BME280;63736;50.076;8.198;2024-03-29T01:58:55;97539.00;;;6.40;100.00
75157;BME280;63736;50.076;8.198;2024-03-29T02:00:27;97553.84;;;6.33;100.00
75157;BME280;63736;50.076;8.198;2024-03-29T02:01:58;97553.63;;;6.26;100.00
75157;BME280;63736;50.076;8.198;2024-03-29T02:03:30;97558.53;;;6.21;100.00
75157;BME280;63736;50.076;8.198;2024-03-29T02:05:01;97569.72;;;6.15;100.00
75157;BME280;63736;50.076;8.198;2024-03-29T02:06:32;97580.09;;;6.08;100.00
75157;BME280;63736;50.076;8.198;2024-03-29T02:08:04;97590.63;;;6.00;100.00
75157;BME280;63736;50.076;8.198;2024-03-29T02:09:34;97581.22;;;5.95;100.00
75157;BME280;63736;50.076;8.198;2024-03-29T02:11:05;97580.72;;;5.92;100.00
75157;BME280;63736;50.076;8.198;2024-03-29T02:12:36;97587.16;;;5.89;100.00
75157;BME280;63736;50.076;8.198;2024-03-29T02:14:06;97598.03;;;5.86;100.00
75157;BME280;63736;50.076;8.198;2024-03-29T02:15:37;97598.16;;;5.85;100.00
75157;BME280;63736;50.076;8.198;2024-03-29T02:17:07;97611.41;;;5.85;100.00
75157;BME280;63736;50.076;8.198;2024-03-29T02:18:37;97616.88;;;5.83;100.00
75157;BME280;63736;50.076;8.198;2024-03-29T02:20:08;97602.66;;;5.84;100.00
75157;BME280;63736;50.076;8.198;2024-03-29T02:21:42;97619.53;;;5.83;100.00
75157;BME280;63736;50.076;8.198;2024-03-29T02:23:26;97609.06;;;5.82;100.00
75157;BME280;63736;50.076;8.198;2024-03-29T02:24:56;97604.59;;;5.82;100.00
75157;BME280;63736;50.076;8.198;2024-03-29T02:26:27;97611.56;;;5.83;100.00
75157;BME280;63736;50.076;8.198;2024-03-29T02:28:02;97620.88;;;5.87;100.00
75157;BME280;63736;50.076;8.198;2024-03-29T02:29:35;97609.00;;;5.91;100.00
75157;BME280;63736;50.076;8.198;2024-03-29T02:31:06;97613.88;;;5.96;100.00
75157;BME280;63736;50.076;8.198;2024-03-29T02:32:38;97596.88;;;5.99;100.00
75157;BME280;63736;50.076;8.198;2024-03-29T02:34:08;97593.66;;;6.05;100.00
75157;BME280;63736;50.076;8.198;2024-03-29T02:35:39;97585.25;;;6.09;100.00
75157;BME280;63736;50.076;8.198;2024-03-29T02:37:10;97595.41;;;6.14;100.00
75157;BME280;63736;50.076;8.198;2024-03-29T02:38:40;97608.91;;;6.21;100.00
75157;BME280;63736;50.076;8.198;2024-03-29T02:40:11;97597.84;;;6.25;100.00
75157;BME280;63736;50.076;8.198;2024-03-29T02:41:41;97591.28;;;6.30;100.00
75157;BME280;63736;50.076;8.198;2024-03-29T02:43:12;97595.28;;;6.34;100.00
75157;BME280;63736;50.076;8.198;2024-03-29T02:44:42;97598.59;;;6.36;100.00
75157;BME280;63736;50.076;8.198;2024-03-29T02:46:12;97593.84;;;6.39;100.00
75157;BME280;63736;50.076;8.198;2024-03-29T02:47:43;97591.03;;;6.41;100.00
75157;BME280;63736;50.076;8.198;2024-03-29T02:49:13;97586.59;;;6.41;100.00
75157;BME280;63736;50.076;8.198;2024-03-29T02:50:43;97580.81;;;6.46;100.00
75157;BME280;63736;50.076;8.198;2024-03-29T02:52:14;97584.00;;;6.50;100.00
75157;BME280;63736;50.076;8.198;2024-03-29T02:53:44;97578.25;;;6.54;100.00
75157;BME280;63736;50.076;8.198;2024-03-29T02:55:14;97561.19;;;6.57;100.00
75157;BME280;63736;50.076;8.198;2024-03-29T02:56:44;97556.28;;;6.62;100.00
75157;BME280;63736;50.076;8.198;2024-03-29T02:58:15;97557.47;;;6.68;100.00
75157;BME280;63736;50.076;8.198;2024-03-29T02:59:45;97559.53;;;6.74;100.00
75157;BME280;63736;50.076;8.198;2024-03-29T03:01:15;97552.75;;;6.80;100.00
75157;BME280;63736;50.076;8.198;2024-03-29T03:02:45;97546.00;;;6.85;100.00
75157;BME280;63736;50.076;8.198;2024-03-29T03:04:16;97558.81;;;6.90;100.00
75157;BME280;63736;50.076;8.198;2024-03-29T03:05:46;97560.31;;;6.92;100.00
75157;BME280;63736;50.076;8.198;2024-03-29T03:07:16;97559.19;;;6.95;100.00
75157;BME280;63736;50.076;8.198;2024-03-29T03:09:05;97555.22;;;6.99;100.00
75157;BME280;63736;50.076;8.198;2024-03-29T03:11:10;97566.22;;;7.04;100.00
75157;BME280;63736;50.076;8.198;2024-03-29T03:12:41;97563.25;;;7.07;100.00
75157;BME280;63736;50.076;8.198;2024-03-29T03:14:11;97571.06;;;7.09;100.00
75157;BME280;63736;50.076;8.198;2024-03-29T03:15:41;97583.03;;;7.13;100.00
75157;BME280;63736;50.076;8.198;2024-03-29T03:17:11;97617.56;;;7.13;100.00
75157;BME280;63736;50.076;8.198;2024-03-29T03:18:42;97622.03;;;7.13;100.00
75157;BME280;63736;50.076;8.198;2024-03-29T03:20:12;97623.84;;;7.12;100.00
75157;BME280;63736;50.076;8.198;2024-03-29T03:21:43;97617.03;;;7.09;100.00
75157;BME280;63736;50.076;8.198;2024-03-29T03:23:14;97616.34;;;7.07;100.00
75157;BME280;63736;50.076;8.198;2024-03-29T03:24:44;97614.00;;;7.04;100.00
75157;BME280;63736;50.076;8.198;2024-03-29T03:26:15;97612.47;;;7.02;100.00
75157;BME280;63736;50.076;8.198;2024-03-29T03:27:45;97612.81;;;6.99;100.00
75157;BME280;63736;50.076;8.198;2024-03-29T03:29:15;97607.66;;;6.97;100.00
75157;BME280;63736;50.076;8.198;2024-03-29T03:30:45;97603.31;;;6.96;100.00
75157;BME280;63736;50.076;8.198;2024-03-29T03:32:16;97599.69;;;6.97;100.00
75157;BME280;63736;50.076;8.198;2024-03-29T03:33:46;97596.19;;;6.97;100.00
75157;BME280;63736;50.076;8.198;2024-03-29T03:35:16;97597.03;;;6.97;100.00
75157;BME280;63736;50.076;8.198;2024-03-29T03:36:46;97599.38;;;7.00;100.00
75157;BME280;63736;50.076;8.198;2024-03-29T03:38:17;97590.44;;;7.01;100.00
75157;BME280;63736;50.076;8.198;2024-03-29T03:39:47;97594.06;;;7.00;100.00
75157;BME280;63736;50.076;8.198;2024-03-29T03:41:18;97589.56;;;7.01;100.00
75157;BME280;63736;50.076;8.198;2024-03-29T03:42:48;97584.13;;;7.02;100.00
75157;BME280;63736;50.076;8.198;2024-03-29T03:44:18;97583.13;;;7.03;100.00
75157;BME280;63736;50.076;8.198;2024-03-29T03:45:49;97575.84;;;7.05;100.00
75157;BME280;63736;50.076;8.198;2024-03-29T03:47:19;97572.34;;;7.05;100.00
75157;BME280;63736;50.076;8.198;2024-03-29T03:48:49;97583.66;;;7.07;100.00
75157;BME280;63736;50.076;8.198;2024-03-29T03:50:19;97585.34;;;7.08;100.00
75157;BME280;63736;50.076;8.198;2024-03-29T03:51:50;97592.16;;;7.10;100.00
75157;BME280;63736;50.076;8.198;2024-03-29T03:53:20;97609.75;;;7.11;100.00
75157;BME280;63736;50.076;8.198;2024-03-29T03:54:50;97604.28;;;7.13;100.00
75157;BME280;63736;50.076;8.198;2024-03-29T03:56:20;97604.13;;;7.15;100.00
75157;BME280;63736;50.076;8.198;2024-03-29T03:57:52;97612.09;;;7.15;100.00
75157;BME280;63736;50.076;8.198;2024-03-29T03:59:23;97613.75;;;7.16;100.00
75157;BME280;63736;50.076;8.198;2024-03-29T04:00:53;97599.63;;;7.15;100.00
75157;BME280;63736;50.076;8.198;2024-03-29T04:02:23;97611.09;;;7.16;100.00
75157;BME280;63736;50.076;8.198;2024-03-29T04:03:53;97619.91;;;7.16;100.00
75157;BME280;63736;50.076;8.198;2024-03-29T04:05:24;97622.72;;;7.15;100.00
75157;BME280;63736;50.076;8.198;2024-03-29T04:06:55;97609.75;;;7.11;100.00
75157;BME280;63736;50.076;8.198;2024-03-29T04:08:26;97609.50;;;7.05;100.00
75157;BME280;63736;50.076;8.198;2024-03-29T04:09:56;97607.88;;;7.04;100.00
75157;BME280;63736;50.076;8.198;2024-03-29T04:11:27;97611.34;;;7.04;100.00
75157;BME280;63736;50.076;8.198;2024-03-29T04:12:58;97598.06;;;7.04;100.00
75157;BME280;63736;50.076;8.198;2024-03-29T04:14:29;97597.41;;;7.02;100.00
75157;BME280;63736;50.076;8.198;2024-03-29T04:16:03;97592.91;;;7.03;100.00
75157;BME280;63736;50.076;8.198;2024-03-29T04:17:34;97578.81;;;7.02;100.00
75157;BME280;63736;50.076;8.198;2024-03-29T04:19:05;97562.53;;;6.97;100.00
75157;BME280;63736;50.076;8.198;2024-03-29T04:20:35;97560.16;;;6.94;100.00
75157;BME280;63736;50.076;8.198;2024-03-29T04:22:06;97552.03;;;6.95;100.00
75157;BME280;63736;50.076;8.198;2024-03-29T04:23:37;97555.53;;;6.96;100.00
75157;BME280;63736;50.076;8.198;2024-03-29T04:25:07;97550.91;;;6.98;100.00
75157;BME280;63736;50.076;8.198;2024-03-29T04:26:39;97536.66;;;6.99;100.00
75157;BME280;63736;50.076;8.198;2024-03-29T04:28:09;97543.47;;;7.02;100.00
75157;BME280;63736;50.076;8.198;2024-03-29T04:29:39;97550.44;;;7.03;100.00
75157;BME280;63736;50.076;8.198;2024-03-29T04:31:10;97566.38;;;7.03;100.00
75157;BME280;63736;50.076;8.198;2024-03-29T04:32:40;97559.22;;;7.03;100.00
75157;BME280;63736;50.076;8.198;2024-03-29T04:34:11;97552.28;;;7.02;100.00
75157;BME280;63736;50.076;8.198;2024-03-29T04:37:26;97563.03;;;7.01;100.00
75157;BME280;63736;50.076;8.198;2024-03-29T04:38:56;97565.84;;;6.99;100.00
75157;BME280;63736;50.076;8.198;2024-03-29T04:40:26;97565.03;;;6.99;100.00
75157;BME280;63736;50.076;8.198;2024-03-29T04:41:57;97556.38;;;6.97;100.00
75157;BME280;63736;50.076;8.198;2024-03-29T04:43:28;97556.38;;;6.97;100.00
75157;BME280;63736;50.076;8.198;2024-03-29T04:44:59;97554.56;;;6.97;100.00
75157;BME280;63736;50.076;8.198;2024-03-29T04:46:30;97552.72;;;6.98;100.00
75157;BME280;63736;50.076;8.198;2024-03-29T04:48:00;97540.44;;;6.97;100.00
75157;BME280;63736;50.076;8.198;2024-03-29T04:49:30;97543.94;;;6.97;100.00
75157;BME280;63736;50.076;8.198;2024-03-29T04:51:05;97543.94;;;6.97;100.00
75157;BME280;63736;50.076;8.198;2024-03-29T04:52:35;97542.13;;;6.98;100.00
75157;BME280;63736;50.076;8.198;2024-03-29T04:54:05;97545.47;;;7.00;100.00
75157;BME280;63736;50.076;8.198;2024-03-29T04:55:35;97540.97;;;7.00;100.00
75157;BME280;63736;50.076;8.198;2024-03-29T04:57:06;97540.97;;;7.00;100.00
75157;BME280;63736;50.076;8.198;2024-03-29T04:58:36;97554.09;;;7.02;100.00
75157;BME280;63736;50.076;8.198;2024-03-29T05:00:07;97550.44;;;7.03;100.00
75157;BME280;63736;50.076;8.198;2024-03-29T05:01:38;97556.56;;;7.03;100.00
75157;BME280;63736;50.076;8.198;2024-03-29T05:03:09;97552.28;;;7.02;100.00
75157;BME280;63736;50.076;8.198;2024-03-29T05:04:39;97559.41;;;7.02;100.00
75157;BME280;63736;50.076;8.198;2024-03-29T05:06:09;97559.06;;;7.05;100.00
75157;BME280;63736;50.076;8.198;2024-03-29T05:07:40;97560.91;;;7.04;100.00
75157;BME280;63736;50.076;8.198;2024-03-29T05:09:10;97557.28;;;7.05;100.00
75157;BME280;63736;50.076;8.198;2024-03-29T05:10:42;97566.06;;;7.06;100.00
75157;BME280;63736;50.076;8.198;2024-03-29T05:12:13;97566.06;;;7.06;100.00
75157;BME280;63736;50.076;8.198;2024-03-29T05:13:43;97566.91;;;7.06;100.00
75157;BME280;63736;50.076;8.198;2024-03-29T05:15:13;97570.38;;;7.07;100.00
75157;BME280;63736;50.076;8.198;2024-03-29T05:16:46;97567.56;;;7.08;100.00
75157;BME280;63736;50.076;8.198;2024-03-29T05:18:17;97565.91;;;7.07;100.00
75157;BME280;63736;50.076;8.198;2024-03-29T05:19:47;97574.72;;;7.08;100.00
75157;BME280;63736;50.076;8.198;2024-03-29T05:21:17;97564.09;;;7.08;100.00
75157;BME280;63736;50.076;8.198;2024-03-29T05:22:47;97571.06;;;7.09;100.00
75157;BME280;63736;50.076;8.198;2024-03-29T05:24:18;97569.25;;;7.09;100.00
75157;BME280;63736;50.076;8.198;2024-03-29T05:25:48;97568.41;;;7.09;100.00
75157;BME280;63736;50.076;8.198;2024-03-29T05:27:19;97571.19;;;7.07;100.00
75157;BME280;63736;50.076;8.198;2024-03-29T05:28:49;97574.00;;;7.06;100.00
75157;BME280;63736;50.076;8.198;2024-03-29T05:30:20;97576.84;;;7.04;100.00
75157;BME280;63736;50.076;8.198;2024-03-29T05:31:50;97573.19;;;7.05;100.00
75157;BME280;63736;50.076;8.198;2024-03-29T05:33:20;97572.34;;;7.05;100.00
75157;BME280;63736;50.076;8.198;2024-03-29T05:34:51;97572.34;;;7.05;100.00
75157;BME280;63736;50.076;8.198;2024-03-29T05:36:21;97580.31;;;7.05;100.00
75157;BME280;63736;50.076;8.198;2024-03-29T05:37:51;97586.47;;;7.05;100.00
75157;BME280;63736;50.076;8.198;2024-03-29T05:39:24;97588.28;;;7.05;100.00
75157;BME280;63736;50.076;8.198;2024-03-29T05:40:54;97590.81;;;7.06;100.00
75157;BME280;63736;50.076;8.198;2024-03-29T05:42:30;97602.25;;;7.07;100.00
75157;BME280;63736;50.076;8.198;2024-03-29T05:44:01;97604.91;;;7.07;100.00
75157;BME280;63736;50.076;8.198;2024-03-29T05:45:31;97605.72;;;7.07;100.00
75157;BME280;63736;50.076;8.198;2024-03-29T05:47:02;97610.03;;;7.08;100.00
75157;BME280;63736;50.076;8.198;2024-03-29T05:48:34;97610.75;;;7.10;100.00
75157;BME280;63736;50.076;8.198;2024-03-29T05:50:05;97608.75;;;7.13;100.00
75157;BME280;63736;50.076;8.198;2024-03-29T05:51:35;97607.75;;;7.14;100.00
75157;BME280;63736;50.076;8.198;2024-03-29T05:53:06;97604.81;;;7.17;100.00
75157;BME280;63736;50.076;8.198;2024-03-29T05:54:36;97603.81;;;7.18;100.00
75157;BME280;63736;50.076;8.198;2024-03-29T05:56:07;97600.16;;;7.19;100.00
75157;BME280;63736;50.076;8.198;2024-03-29T05:57:38;97601.00;;;7.19;100.00
75157;BME280;63736;50.076;8.198;2024-03-29T05:59:11;97601.16;;;7.18;100.00
75157;BME280;63736;50.076;8.198;2024-03-29T06:00:42;97598.50;;;7.18;100.00
75157;BME280;63736;50.076;8.198;2024-03-29T06:02:12;97601.16;;;7.18;100.00
75157;BME280;63736;50.076;8.198;2024-03-29T06:03:43;97597.50;;;7.19;100.00
75157;BME280;63736;50.076;8.198;2024-03-29T06:05:13;97602.81;;;7.19;100.00
75157;BME280;63736;50.076;8.198;2024-03-29T06:06:43;97607.84;;;7.22;100.00
75157;BME280;63736;50.076;8.198;2024-03-29T06:08:14;97604.34;;;7.21;100.00
75157;BME280;63736;50.076;8.198;2024-03-29T06:09:44;97610.34;;;7.23;100.00
75157;BME280;63736;50.076;8.198;2024-03-29T06:11:14;97612.00;;;7.24;100.00
75157;BME280;63736;50.076;8.198;2024-03-29T06:12:44;97601.38;;;7.24;100.00
75157;BME280;63736;50.076;8.198;2024-03-29T06:14:15;97596.06;;;7.24;100.00
75157;BME280;63736;50.076;8.198;2024-03-29T06:16:04;97608.34;;;7.25;100.00
75157;BME280;63736;50.076;8.198;2024-03-29T06:17:52;97610.72;;;7.28;100.00
75157;BME280;63736;50.076;8.198;2024-03-29T06:19:23;97622.00;;;7.31;100.00
75157;BME280;63736;50.076;8.198;2024-03-29T06:20:53;97613.03;;;7.32;100.00
75157;BME280;63736;50.076;8.198;2024-03-29T06:22:24;97614.56;;;7.34;100.00
75157;BME280;63736;50.076;8.198;2024-03-29T06:23:54;97616.06;;;7.37;100.00
75157;BME280;63736;50.076;8.198;2024-03-29T06:25:24;97616.88;;;7.37;100.00
75157;BME280;63736;50.076;8.198;2024-03-29T06:26:55;97627.06;;;7.42;100.00
75157;BME280;63736;50.076;8.198;2024-03-29T06:28:25;97618.75;;;7.45;100.00
75157;BME280;63736;50.076;8.198;2024-03-29T06:29:56;97626.28;;;7.50;100.00
75157;BME280;63736;50.076;8.198;2024-03-29T06:31:26;97620.63;;;7.53;100.00
75157;BME280;63736;50.076;8.198;2024-03-29T06:32:56;97621.16;;;7.56;100.00
75157;BME280;63736;50.076;8.198;2024-03-29T06:34:30;97614.53;;;7.60;100.00
75157;BME280;63736;50.076;8.198;2024-03-29T06:36:01;97617.88;;;7.63;100.00
75157;BME280;63736;50.076;8.198;2024-03-29T06:37:31;97618.06;;;7.61;100.00
75157;BME280;63736;50.076;8.198;2024-03-29T06:39:01;97616.06;;;7.63;100.00
75157;BME280;63736;50.076;8.198;2024-03-29T06:40:34;97617.72;;;7.64;100.00
75157;BME280;63736;50.076;8.198;2024-03-29T06:42:04;97616.41;;;7.68;100.00
75157;BME280;63736;50.076;8.198;2024-03-29T06:43:37;97628.38;;;7.72;100.00
75157;BME280;63736;50.076;8.198;2024-03-29T06:45:08;97626.41;;;7.74;100.00
75157;BME280;63736;50.076;8.198;2024-03-29T06:46:40;97619.13;;;7.76;100.00
75157;BME280;63736;50.076;8.198;2024-03-29T06:48:10;97626.94;;;7.78;100.00
75157;BME280;63736;50.076;8.198;2024-03-29T06:49:41;97625.97;;;7.79;100.00
75157;BME280;63736;50.076;8.198;2024-03-29T06:51:11;97622.97;;;7.82;100.00
75157;BME280;63736;50.076;8.198;2024-03-29T06:52:41;97619.16;;;7.85;100.00
75157;BME280;63736;50.076;8.198;2024-03-29T06:54:12;97626.00;;;7.87;100.00
75157;BME280;63736;50.076;8.198;2024-03-29T06:55:42;97617.19;;;7.87;100.00
75157;BME280;63736;50.076;8.198;2024-03-29T06:57:12;97619.19;;;7.93;100.00
75157;BME280;63736;50.076;8.198;2024-03-29T07:00:20;97625.84;;;7.97;100.00
75157;BME280;63736;50.076;8.198;2024-03-29T07:01:51;97623.72;;;8.01;100.00
75157;BME280;63736;50.076;8.198;2024-03-29T07:03:25;97618.09;;;8.04;100.00
75157;BME280;63736;50.076;8.198;2024-03-29T07:04:55;97620.75;;;8.04;100.00
75157;BME280;63736;50.076;8.198;2024-03-29T07:06:25;97628.88;;;8.02;100.00
75157;BME280;63736;50.076;8.198;2024-03-29T07:07:55;97632.53;;;8.01;100.00
75157;BME280;63736;50.076;8.198;2024-03-29T07:09:26;97626.06;;;8.04;100.00
75157;BME280;63736;50.076;8.198;2024-03-29T07:11:03;97625.38;;;8.02;100.00
75157;BME280;63736;50.076;8.198;2024-03-29T07:12:33;97629.88;;;8.01;100.00
75157;BME280;63736;50.076;8.198;2024-03-29T07:14:03;97624.34;;;7.94;100.00
75157;BME280;63736;50.076;8.198;2024-03-29T07:15:34;97628.03;;;7.93;100.00
75157;BME280;63736;50.076;8.198;2024-03-29T07:17:05;97629.00;;;7.92;100.00
75157;BME280;63736;50.076;8.198;2024-03-29T07:18:36;97632.47;;;7.93;100.00
75157;BME280;63736;50.076;8.198;2024-03-29T07:20:07;97633.63;;;7.90;100.00
75157;BME280;63736;50.076;8.198;2024-03-29T07:21:39;97631.84;;;7.91;100.00
75157;BME280;63736;50.076;8.198;2024-03-29T07:23:09;97636.63;;;7.87;100.00
75157;BME280;63736;50.076;8.198;2024-03-29T07:24:41;97637.44;;;7.88;100.00
75157;BME280;63736;50.076;8.198;2024-03-29T07:26:11;97640.25;;;7.86;100.00
75157;BME280;63736;50.076;8.198;2024-03-29T07:27:42;97635.81;;;7.87;100.00
75157;BME280;63736;50.076;8.198;2024-03-29T07:29:12;97644.13;;;7.92;100.00
75157;BME280;63736;50.076;8.198;2024-03-29T07:30:42;97636.97;;;7.92;100.00
75157;BME280;63736;50.076;8.198;2024-03-29T07:32:14;97636.50;;;7.97;100.00
75157;BME280;63736;50.076;8.198;2024-03-29T07:33:45;97640.53;;;8.01;100.00
75157;BME280;63736;50.076;8.198;2024-03-29T07:35:16;97649.69;;;8.07;100.00
75157;BME280;63736;50.076;8.198;2024-03-29T07:36:48;97650.03;;;8.12;100.00
75157;BME280;63736;50.076;8.198;2024-03-29T07:38:19;97641.91;;;8.22;100.00
75157;BME280;63736;50.076;8.198;2024-03-29T07:39:51;97639.31;;;8.30;100.00
75157;BME280;63736;50.076;8.198;2024-03-29T07:41:21;97631.34;;;8.38;100.00
75157;BME280;63736;50.076;8.198;2024-03-29T07:42:51;97632.41;;;8.46;100.00
75157;BME280;63736;50.076;8.198;2024-03-29T07:44:23;97631.88;;;8.50;100.00
75157;BME280;63736;50.076;8.198;2024-03-29T07:45:53;97630.09;;;8.51;100.00
75157;BME280;63736;50.076;8.198;2024-03-29T07:47:23;97636.06;;;8.53;100.00
75157;BME280;63736;50.076;8.198;2024-03-29T07:48:56;97630.91;;;8.59;100.00
75157;BME280;63736;50.076;8.198;2024-03-29T07:50:26;97621.44;;;8.57;100.00
75157;BME280;63736;50.076;8.198;2024-03-29T07:51:56;97628.41;;;8.58;100.00
75157;BME280;63736;50.076;8.198;2024-03-29T07:53:27;97610.94;;;8.55;100.00
75157;BME280;63736;50.076;8.198;2024-03-29T07:54:57;97611.94;;;8.54;100.00
75157;BME280;63736;50.076;8.198;2024-03-29T07:56:27;97601.97;;;8.56;100.00
75157;BME280;63736;50.076;8.198;2024-03-29T07:57:57;97605.31;;;8.58;100.00
75157;BME280;63736;50.076;8.198;2024-03-29T07:59:28;97604.31;;;8.59;100.00
75157;BME280;63736;50.076;8.198;2024-03-29T08:00:58;97602.78;;;8.57;100.00
75157;BME280;63736;50.076;8.198;2024-03-29T08:02:28;97608.81;;;8.59;100.00
75157;BME280;63736;50.076;8.198;2024-03-29T08:04:00;97605.50;;;8.65;100.00
75157;BME280;63736;50.076;8.198;2024-03-29T08:05:30;97597.50;;;8.65;100.00